Time;durP1;ratioP1;P1;durP2;ratioP2;P2;SDS_P1;SDS_P2;PMS_P1;PMS_P2;Temp;Humidity;BMP_temperature;BMP_pressure;BME280_temperature;BME280_humidity;BME280_pressure;Samples;Min_cycle;Max_cycle;Signal;HPM_P1;HPM_P2
2023/01/29 00:03:14;;;;;;;6.72;4.45;;;14.30;63.50;;;;;;10403686;28;20125;-60
2023/01/29 00:08:15;;;;;;;8.77;4.88;;;14.30;62.80;;;;;;10430628;28;20468;-60
2023/01/29 00:13:16;;;;;;;7.70;5.43;;;14.30;62.90;;;;;;10418184;28;20240;-58
2023/01/29 00:18:16;;;;;;;7.95;4.30;;;14.30;62.90;;;;;;10404477;28;20467;-59
2023/01/29 00:23:17;;;;;;;6.88;4.75;;;14.30;62.90;;;;;;10428571;28;20068;-60
2023/01/29 00:28:18;;;;;;;7.30;4.63;;;14.30;62.90;;;;;;10445834;28;20543;-61
2023/01/29 00:33:19;;;;;;;6.05;3.97;;;14.30;62.80;;;;;;10444473;28;20057;-61
2023/01/29 00:38:19;;;;;;;7.05;4.20;;;14.20;62.80;;;;;;10404491;28;20508;-61
2023/01/29 00:48:39;;;;;;;7.57;5.37;;;14.20;62.70;;;;;;10410880;28;20029;-61
2023/01/29 00:53:40;;;;;;;5.40;3.60;;;14.20;62.30;;;;;;10451543;28;20052;-60
2023/01/29 00:58:40;;;;;;;7.47;4.65;;;14.20;62.30;;;;;;10452674;28;20076;-59
2023/01/29 01:03:44;;;;;;;7.28;5.10;;;14.20;62.30;;;;;;10467865;28;20025;-60
2023/01/29 01:14:04;;;;;;;7.10;4.78;;;14.20;62.30;;;;;;10438992;28;20072;-60
2023/01/29 01:19:05;;;;;;;7.35;4.60;;;14.20;62.20;;;;;;10450763;28;20128;-59
2023/01/29 01:24:06;;;;;;;8.00;5.30;;;14.10;62.20;;;;;;10446584;28;20037;-61
2023/01/29 01:29:07;;;;;;;6.75;4.85;;;14.10;62.20;;;;;;10410967;28;20469;-59
2023/01/29 01:34:08;;;;;;;6.45;4.63;;;14.10;62.10;;;;;;10409237;28;20025;-61
2023/01/29 01:39:09;;;;;;;8.05;4.28;;;14.10;62.20;;;;;;10417022;28;20487;-59
2023/01/29 01:45:00;;;;;;;6.43;4.60;;;14.10;62.50;;;;;;10441189;28;20033;-61
2023/01/29 01:50:14;;;;;;;5.88;4.45;;;14.10;62.40;;;;;;10416406;28;20075;-60
2023/01/29 01:55:20;;;;;;;5.82;3.97;;;14.10;62.50;;;;;;10407282;28;20017;-58
2023/01/29 02:00:23;;;;;;;4.95;3.85;;;14.00;62.30;;;;;;10407954;28;20018;-61
2023/01/29 02:10:48;;;;;;;6.45;4.78;;;14.00;62.30;;;;;;10408379;28;20026;-60
2023/01/29 02:15:49;;;;;;;6.03;4.60;;;14.10;62.30;;;;;;10421674;28;20076;-58
2023/01/29 02:21:32;;;;;;;6.05;3.75;;;14.00;62.20;;;;;;10423185;28;20433;-62
2023/01/29 02:26:57;;;;;;;7.32;5.03;;;14.00;62.20;;;;;;10448672;28;20037;-60
2023/01/29 02:32:18;;;;;;;5.32;3.83;;;14.00;62.40;;;;;;10448211;28;20415;-60
2023/01/29 02:37:30;;;;;;;8.75;5.07;;;14.00;62.60;;;;;;10449076;28;20036;-59
2023/01/29 02:42:51;;;;;;;6.07;3.78;;;14.00;62.70;;;;;;10447500;28;20032;-58
2023/01/29 02:48:01;;;;;;;4.75;3.33;;;14.00;62.60;;;;;;10408615;28;20017;-60
2023/01/29 02:53:14;;;;;;;4.95;3.63;;;14.00;62.70;;;;;;10413940;28;20079;-59
2023/01/29 02:58:28;;;;;;;6.13;4.40;;;13.90;62.60;;;;;;10419120;28;20055;-60
2023/01/29 03:03:41;;;;;;;6.03;4.32;;;14.00;62.70;;;;;;10409731;28;20457;-60
2023/01/29 03:08:48;;;;;;;5.05;3.83;;;14.00;62.60;;;;;;10406780;28;20021;-60
2023/01/29 03:14:01;;;;;;;7.03;4.38;;;13.90;62.70;;;;;;10432499;28;20860;-61
2023/01/29 03:19:35;;;;;;;6.00;4.20;;;13.90;62.60;;;;;;10404956;28;20056;-61
2023/01/29 03:35:47;;;;;;;6.22;4.38;;;13.90;64.30;;;;;;10418786;28;20061;-58
2023/01/29 03:41:31;;;;;;;7.03;4.35;;;13.90;69.10;;;;;;10432109;28;20555;-60
2023/01/29 03:46:47;;;;;;;6.32;4.22;;;14.00;68.60;;;;;;10411649;28;20049;-58
2023/01/29 03:52:02;;;;;;;5.90;4.32;;;14.00;67.90;;;;;;10411426;28;20063;-60
2023/01/29 03:58:09;;;;;;;5.28;3.60;;;14.00;67.20;;;;;;10403905;28;20041;-61
2023/01/29 04:03:23;;;;;;;4.75;3.25;;;14.20;66.20;;;;;;10338754;28;20037;-57
2023/01/29 04:08:31;;;;;;;5.80;4.57;;;14.40;65.10;;;;;;10445018;28;20044;-59
2023/01/29 04:13:32;;;;;;;4.53;3.15;;;14.60;64.30;;;;;;10445596;28;20568;-59
2023/01/29 04:18:33;;;;;;;5.20;4.20;;;14.70;63.80;;;;;;10446932;28;20556;-60
2023/01/29 04:23:34;;;;;;;4.88;3.85;;;14.80;63.30;;;;;;10452934;28;20036;-60
2023/01/29 04:29:21;;;;;;;5.53;4.00;;;14.90;62.80;;;;;;10454195;28;20083;-61
2023/01/29 04:34:36;;;;;;;7.00;4.38;;;15.10;62.20;;;;;;10453967;28;20029;-58
2023/01/29 04:39:55;;;;;;;4.70;3.10;;;15.30;61.50;;;;;;10452476;28;20652;-61
2023/01/29 04:45:27;;;;;;;4.68;3.15;;;15.60;60.80;;;;;;10437263;28;20036;-61
2023/01/29 04:50:40;;;;;;;5.47;3.50;;;15.70;60.50;;;;;;10419886;28;20053;-60
2023/01/29 04:55:53;;;;;;;4.60;3.50;;;15.70;60.20;;;;;;10438404;28;20636;-61
2023/01/29 05:00:54;;;;;;;6.10;3.97;;;15.80;60.00;;;;;;10438733;28;20040;-59
2023/01/29 05:05:57;;;;;;;4.47;3.15;;;15.80;59.80;;;;;;10410222;28;20030;-58
2023/01/29 05:10:59;;;;;;;4.57;3.20;;;15.90;59.60;;;;;;10411192;28;20446;-59
2023/01/29 05:16:13;;;;;;;4.13;3.10;;;16.00;59.50;;;;;;10410092;28;20052;-60
2023/01/29 05:21:13;;;;;;;5.10;3.35;;;16.00;59.30;;;;;;10442850;28;20021;-58
2023/01/29 05:31:33;;;;;;;4.83;3.07;;;16.10;58.90;;;;;;10437674;28;20029;-60
2023/01/29 05:36:34;;;;;;;4.40;3.03;;;16.10;58.90;;;;;;10411486;28;20276;-59
2023/01/29 05:41:35;;;;;;;4.75;3.20;;;16.20;58.60;;;;;;10423342;28;20072;-61
2023/01/29 05:46:36;;;;;;;4.22;2.95;;;16.30;58.30;;;;;;10422720;28;20053;-57
2023/01/29 05:51:37;;;;;;;4.88;3.22;;;16.30;58.10;;;;;;10424881;28;20028;-60
2023/01/29 05:56:38;;;;;;;5.97;3.92;;;16.30;58.00;;;;;;10449207;28;20052;-61
2023/01/29 06:01:39;;;;;;;4.75;3.08;;;16.30;58.20;;;;;;10449065;28;20029;-61
2023/01/29 06:06:40;;;;;;;4.70;3.10;;;16.30;58.20;;;;;;10448816;28;20484;-59
2023/01/29 06:11:40;;;;;;;4.07;3.05;;;16.30;58.20;;;;;;10409703;28;20531;-59
2023/01/29 06:16:41;;;;;;;6.20;3.15;;;16.30;58.70;;;;;;10450809;28;20128;-61
2023/01/29 06:21:42;;;;;;;6.72;3.25;;;16.40;58.90;;;;;;10418141;28;20099;-62
2023/01/29 06:26:42;;;;;;;4.32;2.90;;;16.40;59.00;;;;;;10449921;28;20045;-59
2023/01/29 06:31:43;;;;;;;7.00;2.70;;;16.50;59.40;;;;;;10445748;28;20025;-59
2023/01/29 06:36:43;;;;;;;10.93;4.15;;;16.50;60.80;;;;;;10425733;28;20060;-58
2023/01/29 06:41:45;;;;;;;5.93;2.72;;;16.50;61.10;;;;;;10405292;28;20048;-60
2023/01/29 06:46:45;;;;;;;6.10;3.70;;;16.50;61.40;;;;;;10424878;28;20013;-59
2023/01/29 06:51:46;;;;;;;9.85;3.03;;;16.50;60.60;;;;;;10435841;28;20021;-59
2023/01/29 06:56:47;;;;;;;13.88;3.78;;;16.60;60.20;;;;;;10438757;28;20038;-55
2023/01/29 07:01:47;;;;;;;11.88;4.38;;;16.60;60.00;;;;;;10418607;28;20104;-57
2023/01/29 07:06:48;;;;;;;12.70;4.03;;;16.60;59.50;;;;;;10420216;28;20068;-60
2023/01/29 07:11:49;;;;;;;17.75;4.32;;;16.60;59.40;;;;;;10443483;28;20134;-59
2023/01/29 07:16:49;;;;;;;13.15;4.07;;;16.60;59.30;;;;;;10419822;28;20116;-59
2023/01/29 07:21:50;;;;;;;12.45;3.83;;;16.60;59.20;;;;;;10413208;28;20320;-59
2023/01/29 07:26:51;;;;;;;14.68;4.47;;;16.60;59.00;;;;;;10441416;28;20100;-59
2023/01/29 07:31:51;;;;;;;10.02;3.58;;;16.60;58.80;;;;;;10441924;28;20071;-58
2023/01/29 07:36:53;;;;;;;9.18;3.67;;;16.60;58.60;;;;;;10441006;28;20092;-59
2023/01/29 07:41:53;;;;;;;12.90;5.20;;;16.70;58.70;;;;;;10436696;28;20367;-56
2023/01/29 07:46:54;;;;;;;11.00;3.05;;;16.70;58.40;;;;;;10408885;28;20708;-59
2023/01/29 07:51:55;;;;;;;7.53;3.22;;;16.70;58.30;;;;;;10408459;28;20030;-59
2023/01/29 07:56:55;;;;;;;6.60;3.13;;;16.70;58.30;;;;;;10384595;28;20045;-58
2023/01/29 08:01:56;;;;;;;9.63;3.42;;;16.70;58.30;;;;;;10403295;28;20028;-57
2023/01/29 08:06:57;;;;;;;4.53;2.58;;;16.70;58.10;;;;;;10401237;28;20108;-58
2023/01/29 08:11:57;;;;;;;6.25;3.42;;;16.70;58.00;;;;;;10402928;28;20140;-59
2023/01/29 08:16:58;;;;;;;4.97;3.20;;;16.70;57.90;;;;;;10414264;28;20127;-59
2023/01/29 08:21:59;;;;;;;5.63;3.22;;;16.70;57.90;;;;;;10417413;28;20037;-58
2023/01/29 08:26:59;;;;;;;7.40;3.08;;;16.80;57.80;;;;;;10414978;28;20469;-59
2023/01/29 08:32:00;;;;;;;5.35;2.67;;;16.80;57.60;;;;;;10402559;28;20025;-58
2023/01/29 08:37:01;;;;;;;5.35;2.78;;;16.80;57.70;;;;;;10400647;28;20021;-60
2023/01/29 08:42:01;;;;;;;25.15;5.07;;;16.80;57.50;;;;;;10405878;28;20036;-58
2023/01/29 08:47:02;;;;;;;39.85;5.65;;;16.30;60.40;;;;;;10412071;28;20188;-59
2023/01/29 08:52:03;;;;;;;23.92;4.40;;;16.20;61.80;;;;;;10410926;28;20132;-60
2023/01/29 08:57:03;;;;;;;21.65;4.25;;;16.30;61.80;;;;;;10401731;28;20021;-58
2023/01/29 09:02:04;;;;;;;9.77;3.60;;;16.20;62.20;;;;;;10400458;28;20025;-56
2023/01/29 09:07:05;;;;;;;18.40;5.00;;;16.20;63.00;;;;;;10405785;28;20021;-59
2023/01/29 09:12:06;;;;;;;9.93;3.65;;;16.20;62.50;;;;;;10409532;28;20057;-57
2023/01/29 09:17:06;;;;;;;14.25;3.92;;;16.20;62.80;;;;;;10409632;28;20093;-60
2023/01/29 09:22:07;;;;;;;14.93;4.15;;;16.10;62.90;;;;;;10423087;28;20743;-57
2023/01/29 09:27:08;;;;;;;17.55;4.47;;;16.50;62.80;;;;;;10409607;28;20013;-57
2023/01/29 09:32:09;;;;;;;8.50;3.83;;;16.70;61.80;;;;;;10410685;28;20104;-62
2023/01/29 09:37:10;;;;;;;14.75;4.20;;;16.80;61.70;;;;;;10436068;28;20504;-58
2023/01/29 09:42:23;;;;;;;17.42;4.35;;;16.80;61.80;;;;;;10411666;28;20083;-58
2023/01/29 09:47:26;;;;;;;13.82;3.92;;;16.60;62.10;;;;;;10448725;28;20190;-56
2023/01/29 09:52:34;;;;;;;22.77;4.70;;;16.60;62.00;;;;;;10440783;28;20113;-59
2023/01/29 09:57:56;;;;;;;16.95;3.97;;;16.50;62.20;;;;;;10448312;28;20025;-56
2023/01/29 10:03:20;;;;;;;21.10;4.78;;;16.50;62.30;;;;;;10447135;28;20622;-57
2023/01/29 10:08:51;;;;;;;19.40;4.85;;;16.50;62.30;;;;;;10446935;28;20427;-55
2023/01/29 10:14:29;;;;;;;17.38;3.92;;;16.40;63.00;;;;;;10448676;28;20021;-60
2023/01/29 10:20:23;;;;;;;19.10;4.15;;;16.20;62.70;;;;;;10428543;28;20046;-57
2023/01/29 10:25:24;;;;;;;10.40;4.00;;;16.20;62.40;;;;;;10406608;28;20175;-61
2023/01/29 10:30:42;;;;;;;10.80;4.85;;;16.20;62.10;;;;;;10406000;28;20164;-61
2023/01/29 10:35:49;;;;;;;10.35;4.18;;;16.20;62.40;;;;;;10421360;28;20025;-62
2023/01/29 10:41:10;;;;;;;11.43;5.13;;;16.10;62.00;;;;;;10405816;28;20794;-59
2023/01/29 10:46:26;;;;;;;7.93;3.40;;;16.20;61.40;;;;;;10417836;28;20036;-59
2023/01/29 10:52:12;;;;;;;9.32;3.88;;;16.30;61.10;;;;;;10427701;28;20052;-60
2023/01/29 10:57:53;;;;;;;9.13;4.32;;;16.30;61.10;;;;;;10422545;28;20029;-60
2023/01/29 11:02:54;;;;;;;;;;;15.90;60.90;;;;;;10405609;28;20091;-62
2023/01/29 11:08:07;;;;;;;14.93;5.57;;;16.00;60.40;;;;;;10405660;28;20438;-61
2023/01/29 11:13:13;;;;;;;11.30;6.55;;;16.10;59.80;;;;;;10416925;28;20022;-59
2023/01/29 11:18:14;;;;;;;13.18;6.72;;;16.30;59.60;;;;;;10403217;28;20515;-63
2023/01/29 11:23:31;;;;;;;8.70;6.18;;;16.40;59.40;;;;;;10426332;28;20025;-60
2023/01/29 11:28:44;;;;;;;12.05;5.80;;;16.70;58.70;;;;;;10443740;28;20021;-59
2023/01/29 11:33:45;;;;;;;10.30;5.70;;;16.70;58.10;;;;;;10443604;28;20035;-60
2023/01/29 11:38:46;;;;;;;15.07;5.38;;;16.70;58.40;;;;;;10443669;28;20025;-60
2023/01/29 11:43:47;;;;;;;12.20;5.20;;;16.70;58.60;;;;;;10437722;28;20484;-59
2023/01/29 11:48:53;;;;;;;10.38;4.88;;;16.60;59.70;;;;;;10415147;28;20111;-61
2023/01/29 11:54:01;;;;;;;7.70;4.78;;;16.50;59.80;;;;;;10432472;28;20016;-59
2023/01/29 11:59:03;;;;;;;9.30;4.55;;;16.50;59.70;;;;;;10425953;28;20021;-60
2023/01/29 12:04:21;;;;;;;9.00;4.38;;;16.40;59.90;;;;;;10432472;28;20099;-59
2023/01/29 12:09:27;;;;;;;32.10;8.82;;;16.40;59.80;;;;;;10442096;28;20495;-60
2023/01/29 12:14:32;;;;;;;11.38;4.32;;;16.30;60.30;;;;;;10404256;28;20036;-60
2023/01/29 12:19:55;;;;;;;8.40;4.55;;;16.30;60.90;;;;;;10413446;28;20048;-60
2023/01/29 12:25:06;;;;;;;8.10;4.13;;;16.30;61.20;;;;;;10438325;28;20473;-58
2023/01/29 12:30:42;;;;;;;11.13;4.68;;;16.30;61.10;;;;;;10444358;28;20079;-62
2023/01/29 12:35:53;;;;;;;7.22;4.38;;;16.10;61.30;;;;;;10382320;28;20090;-63
2023/01/29 12:41:30;;;;;;;10.63;4.50;;;16.10;61.20;;;;;;10404330;28;20374;-58
2023/01/29 12:46:38;;;;;;;6.22;3.83;;;16.10;61.80;;;;;;10422845;28;20033;-58
2023/01/29 12:51:53;;;;;;;10.17;4.97;;;16.10;61.90;;;;;;10415845;28;20373;-61
2023/01/29 12:56:59;;;;;;;9.50;4.22;;;16.20;61.80;;;;;;10409868;28;20021;-60
2023/01/29 13:02:22;;;;;;;15.13;4.80;;;16.20;61.30;;;;;;10408851;28;20022;-56
2023/01/29 13:07:32;;;;;;;12.23;4.13;;;16.10;62.80;;;;;;10410103;28;20063;-57
2023/01/29 13:12:35;;;;;;;10.98;4.32;;;16.20;62.60;;;;;;10410151;28;20168;-59
2023/01/29 13:17:46;;;;;;;17.85;4.43;;;16.20;62.80;;;;;;10413620;28;20502;-58
2023/01/29 13:22:48;;;;;;;9.50;3.78;;;16.10;61.50;;;;;;10434668;28;20025;-59
2023/01/29 13:27:49;;;;;;;8.05;3.88;;;16.10;61.50;;;;;;10450729;28;20633;-56
2023/01/29 13:32:53;;;;;;;11.25;3.83;;;16.00;61.40;;;;;;10450606;28;20017;-60
2023/01/29 13:37:54;;;;;;;11.95;4.30;;;16.00;61.70;;;;;;10413297;28;20057;-57
2023/01/29 13:42:56;;;;;;;7.63;4.32;;;16.00;61.60;;;;;;10419688;28;20044;-59
2023/01/29 13:48:28;;;;;;;13.30;4.40;;;16.00;61.40;;;;;;10411960;28;20009;-57
2023/01/29 13:53:35;;;;;;;8.05;4.13;;;16.00;61.40;;;;;;10433127;28;20025;-59
2023/01/29 13:58:57;;;;;;;7.47;3.95;;;16.00;61.50;;;;;;10429443;28;20026;-59
2023/01/29 14:03:57;;;;;;;10.90;4.22;;;16.00;61.70;;;;;;10409449;28;20373;-56
2023/01/29 14:09:00;;;;;;;15.63;3.75;;;16.00;61.90;;;;;;10409467;28;20013;-58
2023/01/29 14:14:01;;;;;;;8.30;5.15;;;16.00;61.70;;;;;;10409150;28;20463;-57
2023/01/29 14:19:03;;;;;;;7.93;3.67;;;16.00;61.90;;;;;;10423774;28;20182;-59
2023/01/29 14:24:19;;;;;;;8.55;4.25;;;16.00;61.90;;;;;;10448695;28;20116;-60
2023/01/29 14:29:30;;;;;;;14.07;4.10;;;16.00;62.00;;;;;;10449023;28;20033;-60
2023/01/29 14:34:41;;;;;;;8.00;3.60;;;16.20;62.40;;;;;;10422205;28;20040;-58
2023/01/29 14:40:11;;;;;;;8.52;3.22;;;16.20;62.20;;;;;;10409018;28;20108;-59
2023/01/29 14:45:36;;;;;;;10.57;4.30;;;16.10;62.10;;;;;;10423095;28;20049;-58
2023/01/29 14:50:51;;;;;;;10.15;3.70;;;16.20;62.60;;;;;;10420373;28;20036;-59
2023/01/29 14:56:18;;;;;;;8.35;3.75;;;16.20;62.30;;;;;;10406429;28;20021;-57
2023/01/29 15:01:29;;;;;;;25.23;6.32;;;16.20;62.60;;;;;;10423666;28;20040;-59
2023/01/29 15:06:41;;;;;;;15.20;3.78;;;16.20;62.50;;;;;;10444826;28;20040;-59
2023/01/29 15:12:13;;;;;;;12.82;3.63;;;16.20;63.20;;;;;;10444386;28;20043;-59
2023/01/29 15:18:02;;;;;;;10.30;3.63;;;16.10;62.70;;;;;;10445203;28;20048;-55
2023/01/29 15:23:26;;;;;;;6.85;2.78;;;16.00;62.70;;;;;;10377944;28;20042;-57
2023/01/29 15:28:30;;;;;;;7.95;3.90;;;16.00;62.70;;;;;;10419157;28;20433;-59
2023/01/29 15:33:34;;;;;;;6.90;4.25;;;16.00;62.70;;;;;;10414990;28;20112;-58
2023/01/29 15:38:35;;;;;;;8.15;3.60;;;16.00;63.20;;;;;;10420710;28;20112;-56
2023/01/29 15:43:41;;;;;;;15.25;3.95;;;15.90;63.00;;;;;;10435672;28;20076;-59
2023/01/29 15:48:43;;;;;;;9.65;3.53;;;15.90;63.70;;;;;;10430531;28;20018;-57
2023/01/29 15:54:15;;;;;;;11.25;4.13;;;16.00;62.80;;;;;;10428817;28;20036;-59
2023/01/29 15:59:23;;;;;;;9.35;4.15;;;16.00;62.50;;;;;;10433785;28;20488;-57
2023/01/29 16:04:30;;;;;;;9.55;5.03;;;16.00;61.50;;;;;;10426967;28;20557;-55
2023/01/29 16:09:30;;;;;;;8.48;5.65;;;16.00;60.80;;;;;;10434180;28;20017;-58
2023/01/29 16:14:32;;;;;;;13.55;6.00;;;16.00;60.10;;;;;;10444339;28;20028;-58
2023/01/29 16:19:33;;;;;;;11.70;5.85;;;16.00;59.60;;;;;;10433916;28;20048;-59
2023/01/29 16:24:35;;;;;;;14.18;8.05;;;16.10;59.30;;;;;;10439876;28;20124;-58
2023/01/29 16:29:37;;;;;;;14.00;6.50;;;16.10;61.50;;;;;;10449050;28;20105;-60
2023/01/29 16:34:46;;;;;;;18.42;8.60;;;16.40;62.70;;;;;;10451733;28;20029;-58
2023/01/29 16:39:51;;;;;;;13.45;6.80;;;16.40;62.90;;;;;;10451708;28;20017;-57
2023/01/29 16:44:58;;;;;;;9.45;5.78;;;16.40;62.10;;;;;;10435756;28;20096;-61
2023/01/29 16:50:19;;;;;;;16.17;6.60;;;16.30;62.60;;;;;;10431874;28;20045;-62
2023/01/29 16:55:21;;;;;;;;;;;16.30;62.80;;;;;;10408123;28;20017;-58
2023/01/29 17:00:28;;;;;;;11.45;5.30;;;16.20;62.10;;;;;;10406957;28;19901;-58
2023/01/29 17:05:34;;;;;;;10.57;5.88;;;16.10;62.10;;;;;;10406920;28;20030;-62
2023/01/29 17:10:35;;;;;;;12.60;5.75;;;16.10;62.10;;;;;;10406102;28;20087;-60
2023/01/29 17:15:41;;;;;;;12.52;5.13;;;16.20;62.40;;;;;;10407371;28;20093;-60
2023/01/29 17:20:42;;;;;;;12.95;5.60;;;16.10;62.50;;;;;;10410419;28;20141;-60
2023/01/29 17:25:44;;;;;;;12.43;5.13;;;16.10;62.30;;;;;;10448240;28;20184;-58
2023/01/29 17:30:44;;;;;;;9.85;5.07;;;16.20;62.80;;;;;;10447418;28;20098;-60
2023/01/29 17:35:45;;;;;;;13.25;4.85;;;16.20;63.00;;;;;;10447085;28;20544;-59
2023/01/29 17:40:58;;;;;;;6.95;4.85;;;16.20;63.40;;;;;;10446556;28;20098;-59
2023/01/29 17:45:59;;;;;;;11.20;4.53;;;16.10;63.50;;;;;;10423591;28;20065;-62
2023/01/29 17:51:03;;;;;;;12.52;4.13;;;16.10;62.90;;;;;;10416378;28;20022;-61
2023/01/29 17:56:04;;;;;;;9.23;5.03;;;16.20;62.60;;;;;;10435308;28;20530;-60
2023/01/29 18:01:05;;;;;;;9.18;4.95;;;16.10;62.50;;;;;;10408085;28;20056;-60
2023/01/29 18:06:11;;;;;;;7.88;4.32;;;16.00;62.80;;;;;;10406928;28;20073;-61
2023/01/29 18:11:12;;;;;;;9.80;5.05;;;16.00;62.40;;;;;;10407314;28;20020;-60
2023/01/29 18:16:13;;;;;;;7.97;4.38;;;16.00;62.10;;;;;;10408747;28;20134;-61
2023/01/29 18:21:13;;;;;;;7.07;4.40;;;16.10;61.80;;;;;;10415676;28;20020;-60
2023/01/29 18:26:15;;;;;;;7.45;4.32;;;16.00;61.60;;;;;;10428427;28;20492;-60
2023/01/29 18:31:16;;;;;;;8.10;3.75;;;16.10;61.30;;;;;;10407055;28;20022;-58
2023/01/29 18:36:16;;;;;;;8.52;5.88;;;16.10;60.90;;;;;;10408536;28;20029;-59
2023/01/29 18:41:17;;;;;;;5.70;3.58;;;16.10;60.60;;;;;;10417593;28;20543;-59
2023/01/29 18:46:18;;;;;;;7.95;5.05;;;16.10;60.50;;;;;;10428994;28;20110;-58
2023/01/29 18:51:19;;;;;;;7.20;3.80;;;16.10;60.70;;;;;;10429278;28;20049;-60
2023/01/29 18:56:20;;;;;;;7.15;3.92;;;16.10;60.60;;;;;;10427577;28;20124;-60
2023/01/29 19:01:20;;;;;;;6.32;3.63;;;16.10;60.70;;;;;;10428160;28;20043;-61
2023/01/29 19:06:21;;;;;;;6.38;3.28;;;16.10;60.70;;;;;;10428566;28;20036;-58
2023/01/29 19:11:22;;;;;;;5.53;3.88;;;16.10;60.70;;;;;;10429263;28;20018;-60
2023/01/29 19:16:23;;;;;;;4.95;3.10;;;16.10;60.70;;;;;;10444714;28;20087;-62
2023/01/29 19:21:24;;;;;;;9.40;4.53;;;16.20;60.50;;;;;;10433784;28;20017;-60
2023/01/29 19:26:24;;;;;;;4.95;3.60;;;16.10;60.90;;;;;;10426389;28;20078;-59
2023/01/29 19:31:25;;;;;;;5.60;4.00;;;16.10;61.40;;;;;;10428858;28;20575;-57
2023/01/29 19:36:26;;;;;;;6.32;3.30;;;16.00;61.40;;;;;;10445760;28;20021;-55
2023/01/29 19:41:27;;;;;;;4.65;3.10;;;16.00;61.00;;;;;;10407224;28;20108;-58
2023/01/29 19:46:29;;;;;;;6.38;3.35;;;16.00;60.90;;;;;;10431655;28;20435;-59
2023/01/29 19:51:29;;;;;;;8.18;4.80;;;16.00;60.80;;;;;;10431130;28;20017;-59
2023/01/29 19:56:32;;;;;;;4.63;3.22;;;16.00;60.70;;;;;;10416210;28;20100;-59
2023/01/29 20:01:33;;;;;;;4.07;2.95;;;16.00;60.60;;;;;;10418283;28;20032;-60
2023/01/29 20:06:34;;;;;;;6.35;3.55;;;16.00;60.70;;;;;;10436466;28;20123;-59
2023/01/29 20:11:34;;;;;;;4.78;3.03;;;16.00;60.50;;;;;;10413504;28;20120;-59
2023/01/29 20:16:37;;;;;;;5.85;3.67;;;16.00;60.80;;;;;;10418719;28;20132;-60
2023/01/29 20:21:38;;;;;;;5.65;3.22;;;16.00;60.40;;;;;;10442205;28;20025;-60
2023/01/29 20:26:38;;;;;;;7.47;3.38;;;16.00;60.30;;;;;;10445844;28;20108;-58
2023/01/29 20:31:39;;;;;;;6.38;3.63;;;16.00;60.20;;;;;;10431912;28;20110;-61
2023/01/29 20:36:40;;;;;;;6.50;3.17;;;16.00;60.50;;;;;;10433231;28;20045;-60
2023/01/29 20:41:41;;;;;;;5.05;3.30;;;15.90;60.60;;;;;;10419568;28;20028;-59
2023/01/29 20:46:41;;;;;;;4.55;3.00;;;15.80;60.90;;;;;;10423143;28;20029;-58
2023/01/29 20:51:44;;;;;;;4.28;3.28;;;15.70;61.10;;;;;;10411531;28;20025;-59
2023/01/29 20:56:44;;;;;;;4.65;2.90;;;15.60;61.30;;;;;;10402959;28;20025;-57
2023/01/29 21:01:45;;;;;;;5.10;3.42;;;15.60;61.60;;;;;;10407434;28;20043;-60
2023/01/29 21:06:46;;;;;;;5.07;3.50;;;15.50;61.80;;;;;;10410677;28;20651;-59
2023/01/29 21:11:47;;;;;;;5.18;3.80;;;15.40;61.90;;;;;;10432883;28;20048;-59
2023/01/29 21:16:47;;;;;;;5.60;4.07;;;15.30;62.10;;;;;;10439490;28;20068;-61
2023/01/29 21:21:48;;;;;;;6.65;3.50;;;15.30;62.20;;;;;;10434551;28;20045;-59
2023/01/29 21:26:49;;;;;;;6.22;4.28;;;15.20;62.30;;;;;;10451117;28;20017;-60
2023/01/29 21:31:49;;;;;;;5.47;3.55;;;15.20;62.40;;;;;;10452024;28;20017;-59
2023/01/29 21:36:51;;;;;;;4.40;3.45;;;15.10;62.50;;;;;;10434147;28;20095;-59
2023/01/29 21:47:11;;;;;;;6.30;4.05;;;15.10;62.70;;;;;;10410392;28;20041;-59
2023/01/29 21:52:13;;;;;;;6.47;4.05;;;15.00;62.70;;;;;;10422445;28;20120;-58
2023/01/29 21:57:15;;;;;;;5.93;4.47;;;15.00;62.90;;;;;;10415370;28;20021;-60
2023/01/29 22:02:16;;;;;;;4.63;3.85;;;14.90;62.90;;;;;;10418620;28;20047;-60
2023/01/29 22:07:17;;;;;;;5.72;4.00;;;14.90;63.00;;;;;;10411298;28;20056;-58
2023/01/29 22:12:17;;;;;;;7.15;4.30;;;14.80;63.00;;;;;;10408027;28;20024;-59
2023/01/29 22:17:19;;;;;;;6.50;4.28;;;14.80;63.10;;;;;;10407904;28;20125;-60
2023/01/29 22:22:19;;;;;;;5.38;4.10;;;14.80;63.30;;;;;;10425122;28;20070;-61
2023/01/29 22:27:20;;;;;;;6.07;4.72;;;14.70;63.20;;;;;;10450372;28;20114;-59
2023/01/29 22:32:21;;;;;;;4.63;3.67;;;14.70;63.30;;;;;;10443702;28;20697;-60
2023/01/29 22:37:21;;;;;;;6.00;4.13;;;14.70;63.40;;;;;;10440525;28;20028;-58
2023/01/29 22:42:22;;;;;;;5.25;3.80;;;14.60;63.30;;;;;;10431485;28;20675;-60
2023/01/29 22:47:23;;;;;;;7.53;4.80;;;14.60;63.40;;;;;;10427957;28;20648;-60
2023/01/29 22:52:26;;;;;;;5.65;3.95;;;14.60;63.50;;;;;;10438118;28;20638;-59
2023/01/29 22:57:27;;;;;;;6.68;4.28;;;14.60;63.50;;;;;;10410742;28;20528;-59
2023/01/29 23:02:28;;;;;;;6.47;4.68;;;14.50;63.50;;;;;;10431388;28;20025;-59
2023/01/29 23:07:28;;;;;;;6.13;3.90;;;14.50;63.50;;;;;;10408767;28;20508;-58
2023/01/29 23:12:29;;;;;;;6.10;4.90;;;14.50;63.60;;;;;;10405775;28;20024;-59
2023/01/29 23:17:30;;;;;;;5.78;4.47;;;14.40;63.50;;;;;;10422647;28;20048;-59
2023/01/29 23:22:30;;;;;;;5.63;4.28;;;14.40;63.50;;;;;;10433350;28;20100;-59
2023/01/29 23:27:31;;;;;;;6.38;4.10;;;14.40;63.60;;;;;;10441023;28;20022;-60
2023/01/29 23:32:32;;;;;;;7.38;4.10;;;14.40;63.70;;;;;;10402251;28;20346;-59
2023/01/29 23:37:33;;;;;;;5.70;4.30;;;14.40;63.60;;;;;;10411635;28;20460;-59
2023/01/29 23:42:33;;;;;;;6.57;4.75;;;14.40;63.50;;;;;;10432268;28;20024;-59
2023/01/29 23:47:34;;;;;;;6.38;4.93;;;14.40;63.60;;;;;;10410570;28;20109;-59
2023/01/29 23:52:35;;;;;;;5.82;4.63;;;14.40;63.60;;;;;;10423964;28;20147;-59
2023/01/29 23:57:35;;;;;;;5.25;4.03;;;14.40;63.70;;;;;;10407209;28;20097;-60
